sensor_id;sensor_type;location;lat;lon;timestamp;P1;durP1;ratioP1;P2;durP2;ratioP2
61096;SDS011;46977;50.936;6.908;2023-03-14T00:01:45;8.15;;;0.98;;
61096;SDS011;46977;50.936;6.908;2023-03-14T00:04:47;4.43;;;1.02;;
61096;SDS011;46977;50.936;6.908;2023-03-14T00:07:51;8.38;;;1.30;;
61096;SDS011;46977;50.936;6.908;2023-03-14T00:10:53;7.00;;;0.98;;
61096;SDS011;46977;50.936;6.908;2023-03-14T00:13:56;8.52;;;1.15;;
61096;SDS011;46977;50.936;6.908;2023-03-14T00:16:58;3.70;;;0.95;;
61096;SDS011;46977;50.936;6.908;2023-03-14T00:20:00;8.82;;;1.38;;
61096;SDS011;46977;50.936;6.908;2023-03-14T00:23:11;4.38;;;1.50;;
61096;SDS011;46977;50.936;6.908;2023-03-14T00:26:14;6.82;;;1.45;;
61096;SDS011;46977;50.936;6.908;2023-03-14T00:29:17;8.80;;;0.98;;
61096;SDS011;46977;50.936;6.908;2023-03-14T00:32:20;4.68;;;0.70;;
61096;SDS011;46977;50.936;6.908;2023-03-14T00:35:22;4.53;;;0.60;;
61096;SDS011;46977;50.936;6.908;2023-03-14T00:38:26;8.43;;;1.42;;
61096;SDS011;46977;50.936;6.908;2023-03-14T00:41:29;3.10;;;0.90;;
61096;SDS011;46977;50.936;6.908;2023-03-14T00:44:31;8.75;;;0.93;;
61096;SDS011;46977;50.936;6.908;2023-03-14T00:47:33;10.27;;;1.15;;
61096;SDS011;46977;50.936;6.908;2023-03-14T00:50:36;4.75;;;0.70;;
61096;SDS011;46977;50.936;6.908;2023-03-14T00:53:39;6.10;;;1.33;;
61096;SDS011;46977;50.936;6.908;2023-03-14T00:56:42;7.07;;;1.08;;
61096;SDS011;46977;50.936;6.908;2023-03-14T00:59:44;5.28;;;0.60;;
61096;SDS011;46977;50.936;6.908;2023-03-14T01:02:47;9.60;;;0.70;;
61096;SDS011;46977;50.936;6.908;2023-03-14T01:05:49;2.80;;;0.50;;
61096;SDS011;46977;50.936;6.908;2023-03-14T01:08:54;3.80;;;0.82;;
61096;SDS011;46977;50.936;6.908;2023-03-14T01:11:56;7.47;;;0.50;;
61096;SDS011;46977;50.936;6.908;2023-03-14T01:14:59;7.72;;;0.88;;
61096;SDS011;46977;50.936;6.908;2023-03-14T01:18:01;6.13;;;1.27;;
61096;SDS011;46977;50.936;6.908;2023-03-14T01:21:09;15.18;;;0.90;;
61096;SDS011;46977;50.936;6.908;2023-03-14T01:24:13;4.65;;;0.98;;
61096;SDS011;46977;50.936;6.908;2023-03-14T01:27:16;4.07;;;1.38;;
61096;SDS011;46977;50.936;6.908;2023-03-14T01:30:18;6.60;;;0.80;;
61096;SDS011;46977;50.936;6.908;2023-03-14T01:33:21;3.33;;;0.55;;
61096;SDS011;46977;50.936;6.908;2023-03-14T01:36:23;1.52;;;0.40;;
61096;SDS011;46977;50.936;6.908;2023-03-14T01:39:27;2.85;;;0.80;;
61096;SDS011;46977;50.936;6.908;2023-03-14T01:42:30;3.40;;;0.68;;
61096;SDS011;46977;50.936;6.908;2023-03-14T01:49:21;6.03;;;0.52;;
61096;SDS011;46977;50.936;6.908;2023-03-14T01:52:32;5.38;;;0.50;;
61096;SDS011;46977;50.936;6.908;2023-03-14T01:55:39;2.05;;;0.45;;
61096;SDS011;46977;50.936;6.908;2023-03-14T01:58:42;2.47;;;0.60;;
61096;SDS011;46977;50.936;6.908;2023-03-14T02:01:46;5.30;;;0.40;;
61096;SDS011;46977;50.936;6.908;2023-03-14T02:04:49;3.33;;;0.30;;
61096;SDS011;46977;50.936;6.908;2023-03-14T02:07:56;4.53;;;0.65;;
61096;SDS011;46977;50.936;6.908;2023-03-14T02:11:05;3.20;;;0.57;;
61096;SDS011;46977;50.936;6.908;2023-03-14T02:14:30;2.20;;;0.47;;
61096;SDS011;46977;50.936;6.908;2023-03-14T02:17:58;2.70;;;0.50;;
61096;SDS011;46977;50.936;6.908;2023-03-14T02:21:14;2.78;;;0.55;;
61096;SDS011;46977;50.936;6.908;2023-03-14T02:24:20;1.80;;;0.40;;
61096;SDS011;46977;50.936;6.908;2023-03-14T02:30:35;4.75;;;0.40;;
61096;SDS011;46977;50.936;6.908;2023-03-14T02:33:39;2.05;;;0.30;;
61096;SDS011;46977;50.936;6.908;2023-03-14T02:36:41;2.28;;;0.40;;
61096;SDS011;46977;50.936;6.908;2023-03-14T02:39:44;5.45;;;0.40;;
61096;SDS011;46977;50.936;6.908;2023-03-14T02:42:50;2.33;;;0.30;;
61096;SDS011;46977;50.936;6.908;2023-03-14T02:45:53;2.75;;;0.30;;
61096;SDS011;46977;50.936;6.908;2023-03-14T02:48:57;3.30;;;0.40;;
61096;SDS011;46977;50.936;6.908;2023-03-14T02:52:02;2.92;;;0.57;;
61096;SDS011;46977;50.936;6.908;2023-03-14T02:55:06;4.10;;;0.45;;
61096;SDS011;46977;50.936;6.908;2023-03-14T02:58:12;3.67;;;0.30;;
61096;SDS011;46977;50.936;6.908;2023-03-14T03:01:15;1.20;;;0.30;;
61096;SDS011;46977;50.936;6.908;2023-03-14T03:04:18;5.85;;;0.60;;
61096;SDS011;46977;50.936;6.908;2023-03-14T03:07:21;3.35;;;0.40;;
61096;SDS011;46977;50.936;6.908;2023-03-14T03:10:23;3.95;;;0.40;;
61096;SDS011;46977;50.936;6.908;2023-03-14T03:13:28;3.15;;;0.57;;
61096;SDS011;46977;50.936;6.908;2023-03-14T03:16:31;4.15;;;0.50;;
61096;SDS011;46977;50.936;6.908;2023-03-14T03:19:34;8.75;;;0.65;;
61096;SDS011;46977;50.936;6.908;2023-03-14T03:22:37;3.63;;;0.88;;
61096;SDS011;46977;50.936;6.908;2023-03-14T03:25:40;4.85;;;0.60;;
61096;SDS011;46977;50.936;6.908;2023-03-14T03:28:43;4.68;;;0.82;;
61096;SDS011;46977;50.936;6.908;2023-03-14T03:31:48;9.80;;;0.70;;
61096;SDS011;46977;50.936;6.908;2023-03-14T03:34:51;6.13;;;0.65;;
61096;SDS011;46977;50.936;6.908;2023-03-14T03:37:53;5.30;;;0.80;;
61096;SDS011;46977;50.936;6.908;2023-03-14T03:40:56;7.95;;;0.80;;
61096;SDS011;46977;50.936;6.908;2023-03-14T03:44:03;5.68;;;0.70;;
61096;SDS011;46977;50.936;6.908;2023-03-14T03:47:07;4.55;;;1.10;;
61096;SDS011;46977;50.936;6.908;2023-03-14T03:50:10;8.00;;;0.90;;
61096;SDS011;46977;50.936;6.908;2023-03-14T03:53:12;12.43;;;3.05;;
61096;SDS011;46977;50.936;6.908;2023-03-14T03:56:24;7.38;;;1.08;;
61096;SDS011;46977;50.936;6.908;2023-03-14T03:59:28;15.15;;;1.80;;
61096;SDS011;46977;50.936;6.908;2023-03-14T04:02:30;4.82;;;0.63;;
61096;SDS011;46977;50.936;6.908;2023-03-14T04:05:33;5.88;;;1.52;;
61096;SDS011;46977;50.936;6.908;2023-03-14T04:08:42;9.45;;;1.40;;
61096;SDS011;46977;50.936;6.908;2023-03-14T04:11:57;13.13;;;2.13;;
61096;SDS011;46977;50.936;6.908;2023-03-14T04:18:17;2.67;;;0.60;;
61096;SDS011;46977;50.936;6.908;2023-03-14T04:21:19;4.68;;;1.40;;
61096;SDS011;46977;50.936;6.908;2023-03-14T04:24:27;4.05;;;0.60;;
61096;SDS011;46977;50.936;6.908;2023-03-14T04:27:31;5.07;;;0.82;;
61096;SDS011;46977;50.936;6.908;2023-03-14T04:30:36;3.47;;;0.57;;
61096;SDS011;46977;50.936;6.908;2023-03-14T04:33:49;6.35;;;0.75;;
61096;SDS011;46977;50.936;6.908;2023-03-14T04:36:57;3.58;;;0.47;;
61096;SDS011;46977;50.936;6.908;2023-03-14T04:40:08;4.40;;;0.43;;
61096;SDS011;46977;50.936;6.908;2023-03-14T04:43:12;4.43;;;0.40;;
61096;SDS011;46977;50.936;6.908;2023-03-14T04:46:22;4.05;;;0.50;;
61096;SDS011;46977;50.936;6.908;2023-03-14T04:49:25;5.68;;;0.55;;
61096;SDS011;46977;50.936;6.908;2023-03-14T04:52:27;1.95;;;0.43;;
61096;SDS011;46977;50.936;6.908;2023-03-14T04:55:30;4.57;;;0.50;;
61096;SDS011;46977;50.936;6.908;2023-03-14T04:58:34;3.88;;;0.50;;
61096;SDS011;46977;50.936;6.908;2023-03-14T05:01:39;2.83;;;0.30;;
61096;SDS011;46977;50.936;6.908;2023-03-14T05:05:14;1.33;;;0.77;;
61096;SDS011;46977;50.936;6.908;2023-03-14T05:08:52;1.30;;;0.20;;
61096;SDS011;46977;50.936;6.908;2023-03-14T05:12:09;2.28;;;0.20;;
61096;SDS011;46977;50.936;6.908;2023-03-14T05:15:35;3.60;;;0.28;;
61096;SDS011;46977;50.936;6.908;2023-03-14T05:19:01;3.63;;;0.30;;
61096;SDS011;46977;50.936;6.908;2023-03-14T05:22:22;4.90;;;0.77;;
61096;SDS011;46977;50.936;6.908;2023-03-14T05:25:42;0.80;;;0.10;;
61096;SDS011;46977;50.936;6.908;2023-03-14T05:28:54;1.70;;;0.65;;
61096;SDS011;46977;50.936;6.908;2023-03-14T05:32:04;4.57;;;0.88;;
61096;SDS011;46977;50.936;6.908;2023-03-14T05:35:21;0.98;;;0.20;;
61096;SDS011;46977;50.936;6.908;2023-03-14T05:38:38;2.55;;;0.20;;
61096;SDS011;46977;50.936;6.908;2023-03-14T05:41:50;1.67;;;0.30;;
61096;SDS011;46977;50.936;6.908;2023-03-14T05:45:01;1.95;;;0.30;;
61096;SDS011;46977;50.936;6.908;2023-03-14T05:48:35;3.22;;;0.15;;
61096;SDS011;46977;50.936;6.908;2023-03-14T05:51:52;3.38;;;0.40;;
61096;SDS011;46977;50.936;6.908;2023-03-14T05:55:12;1.30;;;0.15;;
61096;SDS011;46977;50.936;6.908;2023-03-14T05:58:26;1.23;;;0.35;;
61096;SDS011;46977;50.936;6.908;2023-03-14T06:01:48;0.98;;;0.10;;
61096;SDS011;46977;50.936;6.908;2023-03-14T06:04:54;1.20;;;0.20;;
61096;SDS011;46977;50.936;6.908;2023-03-14T06:07:58;3.10;;;0.20;;
61096;SDS011;46977;50.936;6.908;2023-03-14T06:11:05;1.70;;;0.30;;
61096;SDS011;46977;50.936;6.908;2023-03-14T06:14:08;2.17;;;0.60;;
61096;SDS011;46977;50.936;6.908;2023-03-14T06:17:15;3.40;;;0.50;;
61096;SDS011;46977;50.936;6.908;2023-03-14T06:20:35;3.25;;;0.60;;
61096;SDS011;46977;50.936;6.908;2023-03-14T06:23:39;2.78;;;0.55;;
61096;SDS011;46977;50.936;6.908;2023-03-14T06:26:41;3.40;;;1.15;;
61096;SDS011;46977;50.936;6.908;2023-03-14T06:29:44;7.43;;;1.05;;
61096;SDS011;46977;50.936;6.908;2023-03-14T06:32:48;3.10;;;0.93;;
61096;SDS011;46977;50.936;6.908;2023-03-14T06:35:52;3.17;;;0.60;;
61096;SDS011;46977;50.936;6.908;2023-03-14T06:38:58;2.97;;;0.40;;
61096;SDS011;46977;50.936;6.908;2023-03-14T06:42:02;3.58;;;0.70;;
61096;SDS011;46977;50.936;6.908;2023-03-14T06:45:05;0.60;;;0.30;;
61096;SDS011;46977;50.936;6.908;2023-03-14T06:48:10;3.33;;;0.35;;
61096;SDS011;46977;50.936;6.908;2023-03-14T06:51:22;3.88;;;1.30;;
61096;SDS011;46977;50.936;6.908;2023-03-14T06:54:26;4.50;;;0.85;;
61096;SDS011;46977;50.936;6.908;2023-03-14T06:57:28;2.03;;;0.17;;
61096;SDS011;46977;50.936;6.908;2023-03-14T07:00:31;0.73;;;0.20;;
61096;SDS011;46977;50.936;6.908;2023-03-14T07:03:34;1.17;;;0.20;;
61096;SDS011;46977;50.936;6.908;2023-03-14T07:06:39;1.02;;;0.20;;
61096;SDS011;46977;50.936;6.908;2023-03-14T07:09:47;1.83;;;0.10;;
61096;SDS011;46977;50.936;6.908;2023-03-14T07:12:50;0.43;;;0.10;;
61096;SDS011;46977;50.936;6.908;2023-03-14T07:15:52;0.10;;;0.10;;
61096;SDS011;46977;50.936;6.908;2023-03-14T07:18:55;1.27;;;0.10;;
61096;SDS011;46977;50.936;6.908;2023-03-14T07:21:57;0.20;;;0.00;;
61096;SDS011;46977;50.936;6.908;2023-03-14T07:25:03;2.28;;;0.20;;
61096;SDS011;46977;50.936;6.908;2023-03-14T07:28:08;2.30;;;0.25;;
61096;SDS011;46977;50.936;6.908;2023-03-14T07:31:13;1.48;;;0.10;;
61096;SDS011;46977;50.936;6.908;2023-03-14T07:34:16;0.30;;;0.13;;
61096;SDS011;46977;50.936;6.908;2023-03-14T07:37:20;3.65;;;1.02;;
61096;SDS011;46977;50.936;6.908;2023-03-14T07:40:23;3.38;;;0.98;;
61096;SDS011;46977;50.936;6.908;2023-03-14T07:43:27;4.30;;;0.70;;
61096;SDS011;46977;50.936;6.908;2023-03-14T07:46:34;2.08;;;0.60;;
61096;SDS011;46977;50.936;6.908;2023-03-14T07:49:37;4.10;;;1.15;;
61096;SDS011;46977;50.936;6.908;2023-03-14T07:52:39;2.92;;;0.43;;
61096;SDS011;46977;50.936;6.908;2023-03-14T07:55:43;2.78;;;0.47;;
61096;SDS011;46977;50.936;6.908;2023-03-14T07:58:45;2.30;;;0.20;;
61096;SDS011;46977;50.936;6.908;2023-03-14T08:01:47;3.00;;;0.80;;
61096;SDS011;46977;50.936;6.908;2023-03-14T08:04:50;1.27;;;0.20;;
61096;SDS011;46977;50.936;6.908;2023-03-14T08:07:52;0.10;;;0.10;;
61096;SDS011;46977;50.936;6.908;2023-03-14T08:10:56;0.43;;;0.28;;
61096;SDS011;46977;50.936;6.908;2023-03-14T08:14:05;0.77;;;0.10;;
61096;SDS011;46977;50.936;6.908;2023-03-14T08:17:07;0.60;;;0.10;;
61096;SDS011;46977;50.936;6.908;2023-03-14T08:20:11;2.55;;;0.73;;
61096;SDS011;46977;50.936;6.908;2023-03-14T08:23:15;1.17;;;0.43;;
61096;SDS011;46977;50.936;6.908;2023-03-14T08:26:18;0.20;;;0.10;;
61096;SDS011;46977;50.936;6.908;2023-03-14T08:29:20;0.20;;;0.10;;
61096;SDS011;46977;50.936;6.908;2023-03-14T08:32:23;0.10;;;0.00;;
61096;SDS011;46977;50.936;6.908;2023-03-14T08:35:25;0.85;;;0.20;;
61096;SDS011;46977;50.936;6.908;2023-03-14T08:38:28;0.35;;;0.00;;
61096;SDS011;46977;50.936;6.908;2023-03-14T08:41:32;0.70;;;0.10;;
61096;SDS011;46977;50.936;6.908;2023-03-14T08:44:34;0.73;;;0.05;;
61096;SDS011;46977;50.936;6.908;2023-03-14T08:47:36;0.30;;;0.10;;
61096;SDS011;46977;50.936;6.908;2023-03-14T08:50:38;1.13;;;0.10;;
61096;SDS011;46977;50.936;6.908;2023-03-14T08:53:41;1.20;;;0.10;;
61096;SDS011;46977;50.936;6.908;2023-03-14T08:56:44;0.75;;;0.10;;
61096;SDS011;46977;50.936;6.908;2023-03-14T08:59:47;2.60;;;0.22;;
61096;SDS011;46977;50.936;6.908;2023-03-14T09:02:49;0.90;;;0.10;;
61096;SDS011;46977;50.936;6.908;2023-03-14T09:05:52;1.35;;;0.20;;
61096;SDS011;46977;50.936;6.908;2023-03-14T09:08:54;1.20;;;0.20;;
61096;SDS011;46977;50.936;6.908;2023-03-14T09:11:58;1.23;;;0.30;;
61096;SDS011;46977;50.936;6.908;2023-03-14T09:15:01;0.93;;;0.15;;
61096;SDS011;46977;50.936;6.908;2023-03-14T09:18:03;1.15;;;1.05;;
61096;SDS011;46977;50.936;6.908;2023-03-14T09:21:06;0.65;;;0.30;;
61096;SDS011;46977;50.936;6.908;2023-03-14T09:24:09;1.38;;;0.30;;
61096;SDS011;46977;50.936;6.908;2023-03-14T09:27:13;1.08;;;0.30;;
61096;SDS011;46977;50.936;6.908;2023-03-14T09:30:16;2.22;;;0.50;;
61096;SDS011;46977;50.936;6.908;2023-03-14T09:33:19;1.88;;;0.40;;
61096;SDS011;46977;50.936;6.908;2023-03-14T09:36:21;1.67;;;0.60;;
61096;SDS011;46977;50.936;6.908;2023-03-14T09:39:24;1.65;;;0.22;;
61096;SDS011;46977;50.936;6.908;2023-03-14T09:42:27;1.80;;;0.30;;
61096;SDS011;46977;50.936;6.908;2023-03-14T09:45:31;3.55;;;0.68;;
61096;SDS011;46977;50.936;6.908;2023-03-14T09:48:35;0.50;;;0.22;;
61096;SDS011;46977;50.936;6.908;2023-03-14T09:51:38;1.08;;;0.50;;
61096;SDS011;46977;50.936;6.908;2023-03-14T09:54:42;0.63;;;0.50;;
61096;SDS011;46977;50.936;6.908;2023-03-14T09:57:46;0.85;;;0.57;;
61096;SDS011;46977;50.936;6.908;2023-03-14T10:00:52;1.75;;;0.70;;
61096;SDS011;46977;50.936;6.908;2023-03-14T10:03:57;1.63;;;0.70;;
61096;SDS011;46977;50.936;6.908;2023-03-14T10:07:01;1.27;;;0.55;;
61096;SDS011;46977;50.936;6.908;2023-03-14T10:10:07;1.20;;;0.80;;
61096;SDS011;46977;50.936;6.908;2023-03-14T10:13:16;0.90;;;0.50;;
61096;SDS011;46977;50.936;6.908;2023-03-14T10:16:22;1.35;;;0.70;;
61096;SDS011;46977;50.936;6.908;2023-03-14T10:19:30;1.23;;;1.13;;
61096;SDS011;46977;50.936;6.908;2023-03-14T10:22:32;1.70;;;1.00;;
61096;SDS011;46977;50.936;6.908;2023-03-14T10:25:35;4.60;;;1.15;;
61096;SDS011;46977;50.936;6.908;2023-03-14T10:28:44;2.80;;;1.10;;
61096;SDS011;46977;50.936;6.908;2023-03-14T10:31:51;2.30;;;0.77;;
61096;SDS011;46977;50.936;6.908;2023-03-14T10:35:05;1.52;;;0.73;;
61096;SDS011;46977;50.936;6.908;2023-03-14T10:38:12;1.13;;;0.50;;
61096;SDS011;46977;50.936;6.908;2023-03-14T10:41:16;0.70;;;0.40;;
61096;SDS011;46977;50.936;6.908;2023-03-14T10:44:21;1.00;;;0.40;;
61096;SDS011;46977;50.936;6.908;2023-03-14T10:47:25;2.30;;;0.77;;
61096;SDS011;46977;50.936;6.908;2023-03-14T10:50:30;2.75;;;0.73;;
61096;SDS011;46977;50.936;6.908;2023-03-14T10:53:33;1.80;;;0.93;;
61096;SDS011;46977;50.936;6.908;2023-03-14T10:56:41;4.20;;;0.60;;
61096;SDS011;46977;50.936;6.908;2023-03-14T10:59:45;4.75;;;1.00;;
61096;SDS011;46977;50.936;6.908;2023-03-14T11:02:49;2.30;;;0.73;;
61096;SDS011;46977;50.936;6.908;2023-03-14T11:05:59;1.40;;;0.80;;
61096;SDS011;46977;50.936;6.908;2023-03-14T11:09:07;2.20;;;0.80;;
61096;SDS011;46977;50.936;6.908;2023-03-14T11:12:19;1.77;;;0.80;;
61096;SDS011;46977;50.936;6.908;2023-03-14T11:15:32;2.25;;;1.40;;
61096;SDS011;46977;50.936;6.908;2023-03-14T11:18:43;2.22;;;0.80;;
61096;SDS011;46977;50.936;6.908;2023-03-14T11:22:04;2.83;;;0.90;;
61096;SDS011;46977;50.936;6.908;2023-03-14T11:25:16;5.95;;;1.23;;
61096;SDS011;46977;50.936;6.908;2023-03-14T11:28:22;2.35;;;0.80;;
61096;SDS011;46977;50.936;6.908;2023-03-14T11:31:30;1.40;;;1.15;;
61096;SDS011;46977;50.936;6.908;2023-03-14T11:34:35;2.78;;;0.70;;
61096;SDS011;46977;50.936;6.908;2023-03-14T11:37:41;3.13;;;0.93;;
61096;SDS011;46977;50.936;6.908;2023-03-14T11:40:49;3.20;;;0.93;;
61096;SDS011;46977;50.936;6.908;2023-03-14T11:43:54;1.23;;;0.20;;
61096;SDS011;46977;50.936;6.908;2023-03-14T11:46:59;1.23;;;0.35;;
61096;SDS011;46977;50.936;6.908;2023-03-14T11:50:05;0.35;;;0.10;;
61096;SDS011;46977;50.936;6.908;2023-03-14T11:53:15;0.45;;;0.15;;
61096;SDS011;46977;50.936;6.908;2023-03-14T11:56:24;0.50;;;0.20;;
61096;SDS011;46977;50.936;6.908;2023-03-14T11:59:32;0.45;;;0.30;;
61096;SDS011;46977;50.936;6.908;2023-03-14T12:02:50;1.08;;;0.30;;
61096;SDS011;46977;50.936;6.908;2023-03-14T12:05:58;5.70;;;2.08;;
61096;SDS011;46977;50.936;6.908;2023-03-14T12:09:04;5.82;;;0.80;;
61096;SDS011;46977;50.936;6.908;2023-03-14T12:12:10;5.78;;;1.00;;
61096;SDS011;46977;50.936;6.908;2023-03-14T12:15:18;7.03;;;1.55;;
61096;SDS011;46977;50.936;6.908;2023-03-14T12:18:26;6.43;;;0.98;;
61096;SDS011;46977;50.936;6.908;2023-03-14T12:21:43;2.70;;;1.10;;
61096;SDS011;46977;50.936;6.908;2023-03-14T12:24:49;5.10;;;1.10;;
61096;SDS011;46977;50.936;6.908;2023-03-14T12:34:44;5.30;;;1.88;;
61096;SDS011;46977;50.936;6.908;2023-03-14T12:37:50;4.57;;;1.50;;
61096;SDS011;46977;50.936;6.908;2023-03-14T12:40:54;1.67;;;0.82;;
61096;SDS011;46977;50.936;6.908;2023-03-14T12:47:52;2.05;;;0.70;;
61096;SDS011;46977;50.936;6.908;2023-03-14T12:51:00;4.68;;;1.10;;
61096;SDS011;46977;50.936;6.908;2023-03-14T12:54:19;5.03;;;0.93;;
61096;SDS011;46977;50.936;6.908;2023-03-14T12:57:26;1.63;;;0.80;;
61096;SDS011;46977;50.936;6.908;2023-03-14T13:00:31;3.53;;;0.68;;
61096;SDS011;46977;50.936;6.908;2023-03-14T13:03:39;3.47;;;0.73;;
61096;SDS011;46977;50.936;6.908;2023-03-14T13:06:46;4.57;;;2.22;;
61096;SDS011;46977;50.936;6.908;2023-03-14T13:09:55;2.83;;;0.70;;
61096;SDS011;46977;50.936;6.908;2023-03-14T13:13:03;4.43;;;0.75;;
61096;SDS011;46977;50.936;6.908;2023-03-14T13:16:17;4.78;;;1.40;;
61096;SDS011;46977;50.936;6.908;2023-03-14T13:19:22;3.67;;;1.35;;
61096;SDS011;46977;50.936;6.908;2023-03-14T13:22:28;3.50;;;1.10;;
61096;SDS011;46977;50.936;6.908;2023-03-14T13:25:32;2.83;;;0.50;;
61096;SDS011;46977;50.936;6.908;2023-03-14T13:28:36;3.17;;;0.70;;
61096;SDS011;46977;50.936;6.908;2023-03-14T13:31:38;4.38;;;0.60;;
61096;SDS011;46977;50.936;6.908;2023-03-14T13:34:45;3.05;;;0.95;;
61096;SDS011;46977;50.936;6.908;2023-03-14T13:37:56;7.63;;;2.00;;
61096;SDS011;46977;50.936;6.908;2023-03-14T13:41:12;4.60;;;1.33;;
61096;SDS011;46977;50.936;6.908;2023-03-14T13:44:15;3.83;;;0.60;;
61096;SDS011;46977;50.936;6.908;2023-03-14T13:47:21;6.82;;;0.93;;
61096;SDS011;46977;50.936;6.908;2023-03-14T13:50:25;2.88;;;1.02;;
61096;SDS011;46977;50.936;6.908;2023-03-14T13:53:31;5.78;;;0.50;;
61096;SDS011;46977;50.936;6.908;2023-03-14T13:56:34;10.90;;;1.45;;
61096;SDS011;46977;50.936;6.908;2023-03-14T13:59:36;5.25;;;1.20;;
61096;SDS011;46977;50.936;6.908;2023-03-14T14:02:38;5.35;;;1.05;;
61096;SDS011;46977;50.936;6.908;2023-03-14T14:05:43;9.70;;;1.02;;
61096;SDS011;46977;50.936;6.908;2023-03-14T14:08:47;4.22;;;0.60;;
61096;SDS011;46977;50.936;6.908;2023-03-14T14:11:50;5.70;;;1.00;;
61096;SDS011;46977;50.936;6.908;2023-03-14T14:15:16;9.45;;;1.20;;
61096;SDS011;46977;50.936;6.908;2023-03-14T14:18:22;11.60;;;1.35;;
61096;SDS011;46977;50.936;6.908;2023-03-14T14:21:27;11.07;;;1.58;;
61096;SDS011;46977;50.936;6.908;2023-03-14T14:24:32;16.30;;;2.45;;
61096;SDS011;46977;50.936;6.908;2023-03-14T14:27:36;11.50;;;1.40;;
61096;SDS011;46977;50.936;6.908;2023-03-14T14:30:40;23.77;;;2.30;;
61096;SDS011;46977;50.936;6.908;2023-03-14T14:33:43;13.35;;;1.40;;
61096;SDS011;46977;50.936;6.908;2023-03-14T14:36:46;5.03;;;1.58;;
61096;SDS011;46977;50.936;6.908;2023-03-14T14:39:53;10.23;;;1.10;;
61096;SDS011;46977;50.936;6.908;2023-03-14T14:43:01;8.82;;;1.35;;
61096;SDS011;46977;50.936;6.908;2023-03-14T14:46:05;17.45;;;2.15;;
61096;SDS011;46977;50.936;6.908;2023-03-14T14:49:11;18.25;;;3.85;;
61096;SDS011;46977;50.936;6.908;2023-03-14T14:52:15;8.65;;;1.38;;
61096;SDS011;46977;50.936;6.908;2023-03-14T14:55:20;17.90;;;1.42;;
61096;SDS011;46977;50.936;6.908;2023-03-14T14:58:23;10.93;;;1.23;;
61096;SDS011;46977;50.936;6.908;2023-03-14T15:01:30;15.63;;;2.00;;
61096;SDS011;46977;50.936;6.908;2023-03-14T15:04:34;11.20;;;1.95;;
61096;SDS011;46977;50.936;6.908;2023-03-14T15:07:36;8.20;;;1.30;;
61096;SDS011;46977;50.936;6.908;2023-03-14T15:10:40;10.50;;;1.77;;
61096;SDS011;46977;50.936;6.908;2023-03-14T15:13:42;8.02;;;1.67;;
61096;SDS011;46977;50.936;6.908;2023-03-14T15:16:45;17.23;;;2.10;;
61096;SDS011;46977;50.936;6.908;2023-03-14T15:19:47;14.68;;;2.08;;
61096;SDS011;46977;50.936;6.908;2023-03-14T15:22:50;17.15;;;1.20;;
61096;SDS011;46977;50.936;6.908;2023-03-14T15:25:53;12.52;;;1.77;;
61096;SDS011;46977;50.936;6.908;2023-03-14T15:28:57;18.83;;;1.63;;
61096;SDS011;46977;50.936;6.908;2023-03-14T15:31:59;14.52;;;1.55;;
61096;SDS011;46977;50.936;6.908;2023-03-14T15:35:02;8.43;;;1.65;;
61096;SDS011;46977;50.936;6.908;2023-03-14T15:38:05;12.75;;;1.80;;
61096;SDS011;46977;50.936;6.908;2023-03-14T15:41:08;13.15;;;1.38;;
61096;SDS011;46977;50.936;6.908;2023-03-14T15:44:11;12.55;;;2.75;;
61096;SDS011;46977;50.936;6.908;2023-03-14T15:47:13;13.90;;;1.77;;
61096;SDS011;46977;50.936;6.908;2023-03-14T15:50:16;7.78;;;2.13;;
61096;SDS011;46977;50.936;6.908;2023-03-14T15:53:20;12.40;;;2.17;;
61096;SDS011;46977;50.936;6.908;2023-03-14T15:56:24;19.63;;;2.22;;
61096;SDS011;46977;50.936;6.908;2023-03-14T15:59:29;10.73;;;1.30;;
61096;SDS011;46977;50.936;6.908;2023-03-14T16:02:32;9.32;;;1.55;;
61096;SDS011;46977;50.936;6.908;2023-03-14T16:05:34;10.23;;;1.75;;
61096;SDS011;46977;50.936;6.908;2023-03-14T16:08:36;9.88;;;1.48;;
61096;SDS011;46977;50.936;6.908;2023-03-14T16:11:40;10.02;;;1.67;;
61096;SDS011;46977;50.936;6.908;2023-03-14T16:14:42;17.48;;;3.63;;
61096;SDS011;46977;50.936;6.908;2023-03-14T16:17:45;10.32;;;1.23;;
61096;SDS011;46977;50.936;6.908;2023-03-14T16:20:56;11.82;;;1.52;;
61096;SDS011;46977;50.936;6.908;2023-03-14T16:23:59;14.88;;;2.72;;
61096;SDS011;46977;50.936;6.908;2023-03-14T16:27:05;12.55;;;1.75;;
61096;SDS011;46977;50.936;6.908;2023-03-14T16:30:10;13.02;;;1.70;;
61096;SDS011;46977;50.936;6.908;2023-03-14T16:33:17;7.72;;;1.92;;
61096;SDS011;46977;50.936;6.908;2023-03-14T16:36:32;10.30;;;1.33;;
61096;SDS011;46977;50.936;6.908;2023-03-14T16:39:55;6.72;;;1.50;;
61096;SDS011;46977;50.936;6.908;2023-03-14T16:43:14;10.68;;;1.20;;
61096;SDS011;46977;50.936;6.908;2023-03-14T16:46:17;10.70;;;1.10;;
61096;SDS011;46977;50.936;6.908;2023-03-14T16:49:28;9.15;;;1.17;;
61096;SDS011;46977;50.936;6.908;2023-03-14T16:52:33;15.20;;;1.83;;
61096;SDS011;46977;50.936;6.908;2023-03-14T16:55:39;6.90;;;1.30;;
61096;SDS011;46977;50.936;6.908;2023-03-14T16:58:43;11.45;;;1.02;;
61096;SDS011;46977;50.936;6.908;2023-03-14T17:01:45;9.48;;;0.93;;
61096;SDS011;46977;50.936;6.908;2023-03-14T17:04:48;5.28;;;1.42;;
61096;SDS011;46977;50.936;6.908;2023-03-14T17:07:50;11.02;;;1.45;;
61096;SDS011;46977;50.936;6.908;2023-03-14T17:10:53;7.32;;;0.80;;
61096;SDS011;46977;50.936;6.908;2023-03-14T17:13:56;7.00;;;1.08;;
61096;SDS011;46977;50.936;6.908;2023-03-14T17:16:59;7.45;;;1.08;;
61096;SDS011;46977;50.936;6.908;2023-03-14T17:20:05;13.23;;;1.15;;
61096;SDS011;46977;50.936;6.908;2023-03-14T17:23:13;8.75;;;1.60;;
61096;SDS011;46977;50.936;6.908;2023-03-14T17:26:17;5.57;;;0.77;;
61096;SDS011;46977;50.936;6.908;2023-03-14T17:29:21;2.10;;;0.60;;
61096;SDS011;46977;50.936;6.908;2023-03-14T17:32:23;12.75;;;1.27;;
61096;SDS011;46977;50.936;6.908;2023-03-14T17:35:27;6.47;;;1.23;;
61096;SDS011;46977;50.936;6.908;2023-03-14T17:38:29;3.53;;;0.73;;
61096;SDS011;46977;50.936;6.908;2023-03-14T17:41:32;7.20;;;0.70;;
61096;SDS011;46977;50.936;6.908;2023-03-14T17:44:36;5.75;;;1.00;;
61096;SDS011;46977;50.936;6.908;2023-03-14T17:47:38;8.23;;;1.20;;
61096;SDS011;46977;50.936;6.908;2023-03-14T17:50:40;4.68;;;0.95;;
61096;SDS011;46977;50.936;6.908;2023-03-14T17:53:43;3.15;;;0.70;;
61096;SDS011;46977;50.936;6.908;2023-03-14T17:56:45;6.68;;;0.85;;
61096;SDS011;46977;50.936;6.908;2023-03-14T17:59:51;11.48;;;1.27;;
61096;SDS011;46977;50.936;6.908;2023-03-14T18:02:54;6.35;;;0.82;;
61096;SDS011;46977;50.936;6.908;2023-03-14T18:06:03;3.47;;;0.70;;
61096;SDS011;46977;50.936;6.908;2023-03-14T18:09:06;9.13;;;1.20;;
61096;SDS011;46977;50.936;6.908;2023-03-14T18:12:09;7.43;;;1.90;;
61096;SDS011;46977;50.936;6.908;2023-03-14T18:15:13;11.82;;;1.00;;
61096;SDS011;46977;50.936;6.908;2023-03-14T18:18:15;9.48;;;1.45;;
61096;SDS011;46977;50.936;6.908;2023-03-14T18:21:17;16.67;;;3.53;;
61096;SDS011;46977;50.936;6.908;2023-03-14T18:24:20;15.23;;;1.63;;
61096;SDS011;46977;50.936;6.908;2023-03-14T18:27:22;8.63;;;1.15;;
61096;SDS011;46977;50.936;6.908;2023-03-14T18:30:26;10.35;;;2.00;;
61096;SDS011;46977;50.936;6.908;2023-03-14T18:33:29;7.47;;;1.60;;
61096;SDS011;46977;50.936;6.908;2023-03-14T18:36:38;9.02;;;0.98;;
61096;SDS011;46977;50.936;6.908;2023-03-14T18:39:40;9.95;;;2.33;;
61096;SDS011;46977;50.936;6.908;2023-03-14T18:42:43;8.02;;;1.35;;
61096;SDS011;46977;50.936;6.908;2023-03-14T18:45:46;6.47;;;1.00;;
61096;SDS011;46977;50.936;6.908;2023-03-14T18:48:48;4.35;;;0.80;;
61096;SDS011;46977;50.936;6.908;2023-03-14T18:51:57;9.40;;;1.23;;
61096;SDS011;46977;50.936;6.908;2023-03-14T18:54:59;8.77;;;1.45;;
61096;SDS011;46977;50.936;6.908;2023-03-14T18:58:02;5.82;;;1.25;;